Barao de Grajau, Brazil
Current Conditions -  °F | °C
As of 11:00 PM on Sunday 21 Dec 2014 (Local Time) from SBTE Reporting Station
Clear Clear  
Wind Chill: 84°   Ceiling: Unl
Heat Index: 86°   Visibility: 6mi
Dew Point: 66°   Wind: 3mph
Humidity: 55%   Direction: 160°SSE
Pressure: 29.83"   Gusts: NA
Location:  6.76°S, 43.02°W
Report Text: SBTE 220200Z 16003KT CAVOK 29/19 Q1010
Loading
Personal Weather Stations






























Interactive Weather Map New forecast layout! Learn more

10-Day Weather Forecast

Advertisements
Track Severe Weather on mobile